Sandspit, Canada
Current Conditions -  °F | °C
As of 11:00 PM on Sunday 23 Nov 2014 (Local Time) from CYZP Reporting Station
Light Rain Light Rain  
Wind Chill: 40°   Ceiling: 4200
Heat Index: 45°   Visibility: 8mi
Dew Point: 43°   Wind: 8mph
Humidity: 93%   Direction: 150°SSE
Pressure: 29.88"   Gusts: NA
Location:  53.25°N, 131.82°W
Report Text: CYZP 240700Z AUTO 15007KT 8SM -RA OVC042 07/06 A2988 RMK SLP118
Loading
Personal Weather Stations






























Interactive Weather Map New forecast layout! Learn more

10-Day Weather Forecast

Advertisements
Track Severe Weather on mobile